sensor_id;sensor_type;location;lat;lon;timestamp;temperature;humidity
45849;DHT22;31567;54.600;9.842;2023-05-23T00:02:21;16.70;98.10
45849;DHT22;31567;54.600;9.842;2023-05-23T00:06:01;16.70;98.00
45849;DHT22;31567;54.600;9.842;2023-05-23T00:09:40;16.70;97.90
45849;DHT22;31567;54.600;9.842;2023-05-23T00:13:20;16.70;97.90
45849;DHT22;31567;54.600;9.842;2023-05-23T00:16:59;16.60;97.80
45849;DHT22;31567;54.600;9.842;2023-05-23T00:20:40;16.70;97.60
45849;DHT22;31567;54.600;9.842;2023-05-23T00:24:21;16.70;97.70
45849;DHT22;31567;54.600;9.842;2023-05-23T00:28:01;16.60;97.40
45849;DHT22;31567;54.600;9.842;2023-05-23T00:31:41;16.60;97.40
45849;DHT22;31567;54.600;9.842;2023-05-23T00:35:25;16.60;97.40
45849;DHT22;31567;54.600;9.842;2023-05-23T00:39:04;16.60;97.40
45849;DHT22;31567;54.600;9.842;2023-05-23T00:42:44;16.60;97.40
45849;DHT22;31567;54.600;9.842;2023-05-23T00:46:25;16.50;97.00
45849;DHT22;31567;54.600;9.842;2023-05-23T00:50:12;16.40;97.00
45849;DHT22;31567;54.600;9.842;2023-05-23T00:53:53;16.40;97.10
45849;DHT22;31567;54.600;9.842;2023-05-23T00:57:33;16.30;97.20
45849;DHT22;31567;54.600;9.842;2023-05-23T01:01:14;16.30;97.40
45849;DHT22;31567;54.600;9.842;2023-05-23T01:04:55;16.30;97.40
45849;DHT22;31567;54.600;9.842;2023-05-23T01:08:35;16.30;97.40
45849;DHT22;31567;54.600;9.842;2023-05-23T01:13:15;16.20;97.30
45849;DHT22;31567;54.600;9.842;2023-05-23T01:16:49;16.20;97.10
45849;DHT22;31567;54.600;9.842;2023-05-23T01:20:36;16.20;97.30
45849;DHT22;31567;54.600;9.842;2023-05-23T01:24:35;16.10;97.40
45849;DHT22;31567;54.600;9.842;2023-05-23T01:28:19;16.10;97.70
45849;DHT22;31567;54.600;9.842;2023-05-23T01:32:00;16.10;97.90
45849;DHT22;31567;54.600;9.842;2023-05-23T01:35:42;16.10;97.80
45849;DHT22;31567;54.600;9.842;2023-05-23T01:39:22;16.00;97.80
45849;DHT22;31567;54.600;9.842;2023-05-23T01:43:02;16.00;97.80
45849;DHT22;31567;54.600;9.842;2023-05-23T01:46:42;16.10;97.80
45849;DHT22;31567;54.600;9.842;2023-05-23T01:50:24;16.10;97.80
45849;DHT22;31567;54.600;9.842;2023-05-23T01:54:05;16.10;97.80
45849;DHT22;31567;54.600;9.842;2023-05-23T01:57:45;16.00;98.00
45849;DHT22;31567;54.600;9.842;2023-05-23T02:01:28;16.00;98.20
45849;DHT22;31567;54.600;9.842;2023-05-23T02:05:09;16.00;98.30
45849;DHT22;31567;54.600;9.842;2023-05-23T02:08:49;15.80;98.50
45849;DHT22;31567;54.600;9.842;2023-05-23T02:12:28;15.80;98.80
45849;DHT22;31567;54.600;9.842;2023-05-23T02:16:08;15.80;98.90
45849;DHT22;31567;54.600;9.842;2023-05-23T02:19:48;15.80;98.90
45849;DHT22;31567;54.600;9.842;2023-05-23T02:23:28;15.70;99.00
45849;DHT22;31567;54.600;9.842;2023-05-23T02:27:07;15.80;99.00
45849;DHT22;31567;54.600;9.842;2023-05-23T02:30:47;15.80;98.90
45849;DHT22;31567;54.600;9.842;2023-05-23T02:34:26;15.80;98.90
45849;DHT22;31567;54.600;9.842;2023-05-23T02:38:06;15.80;99.00
45849;DHT22;31567;54.600;9.842;2023-05-23T02:41:45;15.80;99.00
45849;DHT22;31567;54.600;9.842;2023-05-23T02:45:25;15.80;99.00
45849;DHT22;31567;54.600;9.842;2023-05-23T02:49:04;15.80;99.00
45849;DHT22;31567;54.600;9.842;2023-05-23T02:52:44;15.80;99.10
45849;DHT22;31567;54.600;9.842;2023-05-23T02:56:24;15.70;99.20
45849;DHT22;31567;54.600;9.842;2023-05-23T03:00:05;15.70;99.40
45849;DHT22;31567;54.600;9.842;2023-05-23T03:03:45;15.60;99.50
45849;DHT22;31567;54.600;9.842;2023-05-23T03:07:24;15.50;99.70
45849;DHT22;31567;54.600;9.842;2023-05-23T03:11:05;15.50;99.90
45849;DHT22;31567;54.600;9.842;2023-05-23T03:14:44;15.40;99.90
45849;DHT22;31567;54.600;9.842;2023-05-23T03:18:24;15.40;99.90
45849;DHT22;31567;54.600;9.842;2023-05-23T03:22:04;15.30;99.90
45849;DHT22;31567;54.600;9.842;2023-05-23T03:25:43;15.30;99.90
45849;DHT22;31567;54.600;9.842;2023-05-23T03:29:23;15.40;99.90
45849;DHT22;31567;54.600;9.842;2023-05-23T03:33:02;15.40;99.90
45849;DHT22;31567;54.600;9.842;2023-05-23T03:36:42;15.40;99.90
45849;DHT22;31567;54.600;9.842;2023-05-23T03:40:22;15.50;99.90
45849;DHT22;31567;54.600;9.842;2023-05-23T03:44:01;15.40;99.90
45849;DHT22;31567;54.600;9.842;2023-05-23T03:47:41;15.50;99.90
45849;DHT22;31567;54.600;9.842;2023-05-23T03:51:21;15.50;99.90
45849;DHT22;31567;54.600;9.842;2023-05-23T03:55:02;15.40;99.90
45849;DHT22;31567;54.600;9.842;2023-05-23T03:58:42;15.40;99.90
45849;DHT22;31567;54.600;9.842;2023-05-23T04:02:21;15.40;99.90
45849;DHT22;31567;54.600;9.842;2023-05-23T04:06:01;15.40;99.90
45849;DHT22;31567;54.600;9.842;2023-05-23T04:09:40;15.40;99.90
45849;DHT22;31567;54.600;9.842;2023-05-23T04:13:20;15.40;99.90
45849;DHT22;31567;54.600;9.842;2023-05-23T04:17:01;15.50;99.90
45849;DHT22;31567;54.600;9.842;2023-05-23T04:20:40;15.40;99.90
45849;DHT22;31567;54.600;9.842;2023-05-23T04:24:20;15.40;99.90
45849;DHT22;31567;54.600;9.842;2023-05-23T04:28:00;15.40;99.90
45849;DHT22;31567;54.600;9.842;2023-05-23T04:31:39;15.50;99.90
45849;DHT22;31567;54.600;9.842;2023-05-23T04:35:19;15.50;99.90
45849;DHT22;31567;54.600;9.842;2023-05-23T04:38:59;15.50;99.90
45849;DHT22;31567;54.600;9.842;2023-05-23T04:42:39;15.60;99.90
45849;DHT22;31567;54.600;9.842;2023-05-23T04:46:20;15.60;99.90
45849;DHT22;31567;54.600;9.842;2023-05-23T04:50:06;15.60;99.90
45849;DHT22;31567;54.600;9.842;2023-05-23T04:53:46;15.70;99.90
45849;DHT22;31567;54.600;9.842;2023-05-23T04:57:26;15.70;99.90
45849;DHT22;31567;54.600;9.842;2023-05-23T05:01:05;15.60;99.90
45849;DHT22;31567;54.600;9.842;2023-05-23T05:04:45;15.60;99.90
45849;DHT22;31567;54.600;9.842;2023-05-23T05:08:24;15.50;99.90
45849;DHT22;31567;54.600;9.842;2023-05-23T05:12:04;15.50;99.90
45849;DHT22;31567;54.600;9.842;2023-05-23T05:15:44;15.60;99.90
45849;DHT22;31567;54.600;9.842;2023-05-23T05:19:23;15.50;99.90
45849;DHT22;31567;54.600;9.842;2023-05-23T05:23:03;15.60;99.90
45849;DHT22;31567;54.600;9.842;2023-05-23T05:26:43;15.50;99.90
45849;DHT22;31567;54.600;9.842;2023-05-23T05:30:22;15.60;99.90
45849;DHT22;31567;54.600;9.842;2023-05-23T05:34:02;15.60;99.90
45849;DHT22;31567;54.600;9.842;2023-05-23T05:37:41;15.60;99.90
45849;DHT22;31567;54.600;9.842;2023-05-23T05:41:21;15.60;99.90
45849;DHT22;31567;54.600;9.842;2023-05-23T05:45:00;15.60;99.90
45849;DHT22;31567;54.600;9.842;2023-05-23T05:48:40;15.70;99.90
45849;DHT22;31567;54.600;9.842;2023-05-23T05:52:19;15.50;99.90
45849;DHT22;31567;54.600;9.842;2023-05-23T05:55:59;15.40;99.90
45849;DHT22;31567;54.600;9.842;2023-05-23T05:59:39;15.30;99.90
45849;DHT22;31567;54.600;9.842;2023-05-23T06:03:18;15.40;99.90
45849;DHT22;31567;54.600;9.842;2023-05-23T06:06:58;15.40;99.90
45849;DHT22;31567;54.600;9.842;2023-05-23T06:10:37;15.40;99.90
45849;DHT22;31567;54.600;9.842;2023-05-23T06:14:17;15.40;99.90
45849;DHT22;31567;54.600;9.842;2023-05-23T06:17:57;15.40;99.90
45849;DHT22;31567;54.600;9.842;2023-05-23T06:21:36;15.50;99.90
45849;DHT22;31567;54.600;9.842;2023-05-23T06:25:16;15.50;99.90
45849;DHT22;31567;54.600;9.842;2023-05-23T06:28:56;15.40;99.90
45849;DHT22;31567;54.600;9.842;2023-05-23T06:32:35;15.40;99.90
45849;DHT22;31567;54.600;9.842;2023-05-23T06:36:15;15.40;99.90
45849;DHT22;31567;54.600;9.842;2023-05-23T06:39:54;15.40;99.90
45849;DHT22;31567;54.600;9.842;2023-05-23T06:43:34;15.40;99.90
45849;DHT22;31567;54.600;9.842;2023-05-23T06:47:13;15.40;99.90
45849;DHT22;31567;54.600;9.842;2023-05-23T06:50:53;15.40;99.90
45849;DHT22;31567;54.600;9.842;2023-05-23T06:54:32;15.30;99.90
45849;DHT22;31567;54.600;9.842;2023-05-23T06:58:12;15.30;99.90
45849;DHT22;31567;54.600;9.842;2023-05-23T07:01:52;15.20;99.90
45849;DHT22;31567;54.600;9.842;2023-05-23T07:05:32;15.10;99.90
45849;DHT22;31567;54.600;9.842;2023-05-23T07:09:12;15.20;99.90
45849;DHT22;31567;54.600;9.842;2023-05-23T07:12:52;15.30;99.90
45849;DHT22;31567;54.600;9.842;2023-05-23T07:16:32;15.30;99.90
45849;DHT22;31567;54.600;9.842;2023-05-23T07:20:11;15.30;99.90
45849;DHT22;31567;54.600;9.842;2023-05-23T07:23:51;15.50;99.90
45849;DHT22;31567;54.600;9.842;2023-05-23T07:27:30;15.60;99.90
45849;DHT22;31567;54.600;9.842;2023-05-23T07:31:10;15.70;99.90
45849;DHT22;31567;54.600;9.842;2023-05-23T07:34:50;15.70;99.90
45849;DHT22;31567;54.600;9.842;2023-05-23T07:38:29;15.50;99.90
45849;DHT22;31567;54.600;9.842;2023-05-23T07:42:09;15.20;99.90
45849;DHT22;31567;54.600;9.842;2023-05-23T07:45:49;15.00;99.90
45849;DHT22;31567;54.600;9.842;2023-05-23T07:49:28;14.70;99.90
45849;DHT22;31567;54.600;9.842;2023-05-23T07:53:08;14.50;99.90
45849;DHT22;31567;54.600;9.842;2023-05-23T07:56:47;14.40;99.90
45849;DHT22;31567;54.600;9.842;2023-05-23T08:00:27;14.40;99.90
45849;DHT22;31567;54.600;9.842;2023-05-23T08:04:07;14.10;99.90
45849;DHT22;31567;54.600;9.842;2023-05-23T08:07:46;14.10;99.90
45849;DHT22;31567;54.600;9.842;2023-05-23T08:11:26;13.90;99.90
45849;DHT22;31567;54.600;9.842;2023-05-23T08:15:07;13.80;99.90
45849;DHT22;31567;54.600;9.842;2023-05-23T08:18:47;13.60;99.90
45849;DHT22;31567;54.600;9.842;2023-05-23T08:22:26;13.40;99.90
45849;DHT22;31567;54.600;9.842;2023-05-23T08:26:06;13.40;99.90
45849;DHT22;31567;54.600;9.842;2023-05-23T08:29:46;13.30;99.90
45849;DHT22;31567;54.600;9.842;2023-05-23T08:33:26;13.30;99.90
45849;DHT22;31567;54.600;9.842;2023-05-23T08:37:05;13.40;99.90
45849;DHT22;31567;54.600;9.842;2023-05-23T08:40:49;13.30;99.90
45849;DHT22;31567;54.600;9.842;2023-05-23T08:44:31;13.40;99.90
45849;DHT22;31567;54.600;9.842;2023-05-23T08:48:12;13.30;99.90
45849;DHT22;31567;54.600;9.842;2023-05-23T08:51:54;13.30;99.90
45849;DHT22;31567;54.600;9.842;2023-05-23T08:55:36;13.40;99.90
45849;DHT22;31567;54.600;9.842;2023-05-23T08:59:16;13.20;99.90
45849;DHT22;31567;54.600;9.842;2023-05-23T09:02:57;13.20;99.90
45849;DHT22;31567;54.600;9.842;2023-05-23T09:06:36;13.10;99.90
45849;DHT22;31567;54.600;9.842;2023-05-23T09:10:16;12.90;99.90
45849;DHT22;31567;54.600;9.842;2023-05-23T09:13:58;13.10;99.90
45849;DHT22;31567;54.600;9.842;2023-05-23T09:17:38;13.20;99.90
45849;DHT22;31567;54.600;9.842;2023-05-23T09:21:18;13.30;99.90
45849;DHT22;31567;54.600;9.842;2023-05-23T09:24:59;13.30;99.90
45849;DHT22;31567;54.600;9.842;2023-05-23T09:28:41;13.50;99.90
45849;DHT22;31567;54.600;9.842;2023-05-23T09:32:21;13.50;99.90
45849;DHT22;31567;54.600;9.842;2023-05-23T09:36:02;13.60;99.90
45849;DHT22;31567;54.600;9.842;2023-05-23T09:39:45;13.70;99.90
45849;DHT22;31567;54.600;9.842;2023-05-23T09:43:25;13.70;99.90
45849;DHT22;31567;54.600;9.842;2023-05-23T09:47:06;13.80;99.90
45849;DHT22;31567;54.600;9.842;2023-05-23T09:50:46;13.70;99.90
45849;DHT22;31567;54.600;9.842;2023-05-23T09:54:29;13.80;99.90
45849;DHT22;31567;54.600;9.842;2023-05-23T09:58:09;13.80;99.90
45849;DHT22;31567;54.600;9.842;2023-05-23T10:01:50;13.90;99.90
45849;DHT22;31567;54.600;9.842;2023-05-23T10:05:48;14.00;99.90
45849;DHT22;31567;54.600;9.842;2023-05-23T10:09:28;14.00;99.90
45849;DHT22;31567;54.600;9.842;2023-05-23T10:13:10;14.10;99.20
45849;DHT22;31567;54.600;9.842;2023-05-23T10:17:10;14.10;99.60
45849;DHT22;31567;54.600;9.842;2023-05-23T10:20:53;14.20;99.50
45849;DHT22;31567;54.600;9.842;2023-05-23T10:24:35;14.10;98.70
45849;DHT22;31567;54.600;9.842;2023-05-23T10:28:16;14.20;98.90
45849;DHT22;31567;54.600;9.842;2023-05-23T10:31:56;14.20;98.90
45849;DHT22;31567;54.600;9.842;2023-05-23T10:39:59;14.20;99.10
45849;DHT22;31567;54.600;9.842;2023-05-23T10:47:26;14.30;98.30
45849;DHT22;31567;54.600;9.842;2023-05-23T10:51:13;14.30;97.60
45849;DHT22;31567;54.600;9.842;2023-05-23T10:54:53;14.30;96.70
45849;DHT22;31567;54.600;9.842;2023-05-23T10:58:36;14.50;97.30
45849;DHT22;31567;54.600;9.842;2023-05-23T11:02:27;14.50;95.70
45849;DHT22;31567;54.600;9.842;2023-05-23T11:10:13;14.50;95.50
45849;DHT22;31567;54.600;9.842;2023-05-23T11:13:57;14.70;96.00
45849;DHT22;31567;54.600;9.842;2023-05-23T11:17:51;15.20;95.70
45849;DHT22;31567;54.600;9.842;2023-05-23T11:21:32;15.30;94.70
45849;DHT22;31567;54.600;9.842;2023-05-23T11:25:11;15.40;95.00
45849;DHT22;31567;54.600;9.842;2023-05-23T11:28:55;15.40;94.30
45849;DHT22;31567;54.600;9.842;2023-05-23T11:32:36;15.50;94.70
45849;DHT22;31567;54.600;9.842;2023-05-23T11:36:15;15.70;93.80
45849;DHT22;31567;54.600;9.842;2023-05-23T11:39:55;15.90;93.70
45849;DHT22;31567;54.600;9.842;2023-05-23T11:43:35;16.10;93.20
45849;DHT22;31567;54.600;9.842;2023-05-23T11:47:14;16.10;92.10
45849;DHT22;31567;54.600;9.842;2023-05-23T11:50:54;16.30;92.40
45849;DHT22;31567;54.600;9.842;2023-05-23T11:54:34;16.00;91.20
45849;DHT22;31567;54.600;9.842;2023-05-23T11:58:13;15.90;91.40
45849;DHT22;31567;54.600;9.842;2023-05-23T12:01:53;15.90;92.20
45849;DHT22;31567;54.600;9.842;2023-05-23T12:05:33;15.90;92.50
45849;DHT22;31567;54.600;9.842;2023-05-23T12:09:13;15.90;91.50
45849;DHT22;31567;54.600;9.842;2023-05-23T12:12:53;15.90;91.70
45849;DHT22;31567;54.600;9.842;2023-05-23T12:16:34;15.90;92.20
45849;DHT22;31567;54.600;9.842;2023-05-23T12:20:14;16.10;90.90
45849;DHT22;31567;54.600;9.842;2023-05-23T12:23:55;16.20;90.80
45849;DHT22;31567;54.600;9.842;2023-05-23T12:27:35;16.40;91.10
45849;DHT22;31567;54.600;9.842;2023-05-23T12:31:17;16.50;90.40
45849;DHT22;31567;54.600;9.842;2023-05-23T12:34:57;16.20;89.70
45849;DHT22;31567;54.600;9.842;2023-05-23T12:38:36;16.20;90.40
45849;DHT22;31567;54.600;9.842;2023-05-23T12:42:17;16.00;90.50
45849;DHT22;31567;54.600;9.842;2023-05-23T12:45:56;16.00;90.90
45849;DHT22;31567;54.600;9.842;2023-05-23T12:49:37;16.00;90.30
45849;DHT22;31567;54.600;9.842;2023-05-23T12:53:17;16.50;90.80
45849;DHT22;31567;54.600;9.842;2023-05-23T12:56:56;16.20;88.10
45849;DHT22;31567;54.600;9.842;2023-05-23T13:00:36;16.20;89.30
45849;DHT22;31567;54.600;9.842;2023-05-23T13:04:16;16.20;88.60
45849;DHT22;31567;54.600;9.842;2023-05-23T13:07:55;16.00;88.80
45849;DHT22;31567;54.600;9.842;2023-05-23T13:11:37;16.00;88.70
45849;DHT22;31567;54.600;9.842;2023-05-23T13:15:17;15.80;89.40
45849;DHT22;31567;54.600;9.842;2023-05-23T13:18:57;15.50;89.40
45849;DHT22;31567;54.600;9.842;2023-05-23T13:22:36;15.70;90.90
45849;DHT22;31567;54.600;9.842;2023-05-23T13:26:16;15.90;89.40
45849;DHT22;31567;54.600;9.842;2023-05-23T13:29:55;16.00;88.80
45849;DHT22;31567;54.600;9.842;2023-05-23T13:33:35;16.00;88.30
45849;DHT22;31567;54.600;9.842;2023-05-23T13:37:15;15.90;88.90
45849;DHT22;31567;54.600;9.842;2023-05-23T13:40:55;15.70;88.40
45849;DHT22;31567;54.600;9.842;2023-05-23T13:44:35;15.80;88.90
45849;DHT22;31567;54.600;9.842;2023-05-23T13:48:14;15.80;89.60
45849;DHT22;31567;54.600;9.842;2023-05-23T13:51:54;15.70;90.20
45849;DHT22;31567;54.600;9.842;2023-05-23T13:55:33;15.70;90.40
45849;DHT22;31567;54.600;9.842;2023-05-23T13:59:13;15.80;88.90
45849;DHT22;31567;54.600;9.842;2023-05-23T14:02:57;15.70;88.60
45849;DHT22;31567;54.600;9.842;2023-05-23T14:06:36;15.60;90.20
45849;DHT22;31567;54.600;9.842;2023-05-23T14:10:16;15.40;90.10
45849;DHT22;31567;54.600;9.842;2023-05-23T14:13:55;15.30;90.00
45849;DHT22;31567;54.600;9.842;2023-05-23T14:17:35;15.20;87.80
45849;DHT22;31567;54.600;9.842;2023-05-23T14:21:15;15.00;88.70
45849;DHT22;31567;54.600;9.842;2023-05-23T14:24:54;15.10;90.10
45849;DHT22;31567;54.600;9.842;2023-05-23T14:28:34;14.80;90.60
45849;DHT22;31567;54.600;9.842;2023-05-23T14:32:14;14.70;90.50
45849;DHT22;31567;54.600;9.842;2023-05-23T14:35:53;14.60;90.30
45849;DHT22;31567;54.600;9.842;2023-05-23T14:39:33;14.70;90.70
45849;DHT22;31567;54.600;9.842;2023-05-23T14:43:12;14.70;90.90
45849;DHT22;31567;54.600;9.842;2023-05-23T14:46:52;14.70;91.50
45849;DHT22;31567;54.600;9.842;2023-05-23T14:50:31;14.70;91.20
45849;DHT22;31567;54.600;9.842;2023-05-23T14:54:11;14.70;91.00
45849;DHT22;31567;54.600;9.842;2023-05-23T14:57:51;14.50;90.80
45849;DHT22;31567;54.600;9.842;2023-05-23T15:01:30;14.30;91.20
45849;DHT22;31567;54.600;9.842;2023-05-23T15:05:10;14.20;91.10
45849;DHT22;31567;54.600;9.842;2023-05-23T15:08:49;14.10;91.40
45849;DHT22;31567;54.600;9.842;2023-05-23T15:12:30;14.20;91.20
45849;DHT22;31567;54.600;9.842;2023-05-23T15:16:10;14.10;91.50
45849;DHT22;31567;54.600;9.842;2023-05-23T15:19:49;14.00;91.40
45849;DHT22;31567;54.600;9.842;2023-05-23T15:23:29;13.90;91.60
45849;DHT22;31567;54.600;9.842;2023-05-23T15:27:09;13.90;91.50
45849;DHT22;31567;54.600;9.842;2023-05-23T15:30:48;13.90;91.50
45849;DHT22;31567;54.600;9.842;2023-05-23T15:34:28;13.70;91.60
45849;DHT22;31567;54.600;9.842;2023-05-23T15:38:07;13.80;92.20
45849;DHT22;31567;54.600;9.842;2023-05-23T15:41:47;13.50;92.10
45849;DHT22;31567;54.600;9.842;2023-05-23T15:45:26;13.50;92.50
45849;DHT22;31567;54.600;9.842;2023-05-23T15:49:06;13.50;92.70
45849;DHT22;31567;54.600;9.842;2023-05-23T15:52:45;13.40;92.90
45849;DHT22;31567;54.600;9.842;2023-05-23T15:56:25;13.40;92.90
45849;DHT22;31567;54.600;9.842;2023-05-23T16:00:05;13.30;93.00
45849;DHT22;31567;54.600;9.842;2023-05-23T16:03:46;13.30;93.10
45849;DHT22;31567;54.600;9.842;2023-05-23T16:07:25;13.30;93.10
45849;DHT22;31567;54.600;9.842;2023-05-23T16:11:05;13.20;93.20
45849;DHT22;31567;54.600;9.842;2023-05-23T16:14:44;13.20;93.60
45849;DHT22;31567;54.600;9.842;2023-05-23T16:18:24;13.10;93.70
45849;DHT22;31567;54.600;9.842;2023-05-23T16:22:04;13.10;93.30
45849;DHT22;31567;54.600;9.842;2023-05-23T16:25:43;13.00;93.60
45849;DHT22;31567;54.600;9.842;2023-05-23T16:29:23;13.00;93.50
45849;DHT22;31567;54.600;9.842;2023-05-23T16:33:02;12.90;93.60
45849;DHT22;31567;54.600;9.842;2023-05-23T16:36:42;12.90;93.40
45849;DHT22;31567;54.600;9.842;2023-05-23T16:40:21;12.90;93.60
45849;DHT22;31567;54.600;9.842;2023-05-23T16:44:01;12.90;93.70
45849;DHT22;31567;54.600;9.842;2023-05-23T16:47:41;12.80;93.70
45849;DHT22;31567;54.600;9.842;2023-05-23T16:51:20;12.90;94.00
45849;DHT22;31567;54.600;9.842;2023-05-23T16:55:01;12.70;93.90
45849;DHT22;31567;54.600;9.842;2023-05-23T16:58:40;12.60;93.90
45849;DHT22;31567;54.600;9.842;2023-05-23T17:02:20;12.70;94.10
45849;DHT22;31567;54.600;9.842;2023-05-23T17:06:00;12.70;94.10
45849;DHT22;31567;54.600;9.842;2023-05-23T17:09:39;12.70;94.10
45849;DHT22;31567;54.600;9.842;2023-05-23T17:13:19;12.70;94.10
45849;DHT22;31567;54.600;9.842;2023-05-23T17:16:59;12.70;94.00
45849;DHT22;31567;54.600;9.842;2023-05-23T17:20:39;12.70;94.10
45849;DHT22;31567;54.600;9.842;2023-05-23T17:24:18;12.70;94.00
45849;DHT22;31567;54.600;9.842;2023-05-23T17:27:58;12.60;93.90
45849;DHT22;31567;54.600;9.842;2023-05-23T17:31:38;12.60;94.00
45849;DHT22;31567;54.600;9.842;2023-05-23T17:35:17;12.50;94.20
45849;DHT22;31567;54.600;9.842;2023-05-23T17:38:57;12.50;94.20
45849;DHT22;31567;54.600;9.842;2023-05-23T17:42:39;12.50;94.30
45849;DHT22;31567;54.600;9.842;2023-05-23T17:46:19;12.40;94.30
45849;DHT22;31567;54.600;9.842;2023-05-23T17:49:58;12.50;94.20
45849;DHT22;31567;54.600;9.842;2023-05-23T17:53:38;12.30;93.90
45849;DHT22;31567;54.600;9.842;2023-05-23T17:57:19;12.30;94.30
45849;DHT22;31567;54.600;9.842;2023-05-23T18:00:59;12.30;94.40
45849;DHT22;31567;54.600;9.842;2023-05-23T18:04:40;12.30;94.80
45849;DHT22;31567;54.600;9.842;2023-05-23T18:08:20;12.30;94.90
45849;DHT22;31567;54.600;9.842;2023-05-23T18:11:59;12.30;95.00
45849;DHT22;31567;54.600;9.842;2023-05-23T18:15:39;12.20;95.10
45849;DHT22;31567;54.600;9.842;2023-05-23T18:19:18;12.20;95.10
45849;DHT22;31567;54.600;9.842;2023-05-23T18:22:58;12.30;95.20
45849;DHT22;31567;54.600;9.842;2023-05-23T18:26:37;12.20;95.10
45849;DHT22;31567;54.600;9.842;2023-05-23T18:30:20;12.20;95.30
45849;DHT22;31567;54.600;9.842;2023-05-23T18:34:00;12.20;95.40
45849;DHT22;31567;54.600;9.842;2023-05-23T18:37:39;12.10;95.40
45849;DHT22;31567;54.600;9.842;2023-05-23T18:41:19;12.10;95.40
45849;DHT22;31567;54.600;9.842;2023-05-23T18:44:58;12.10;95.60
45849;DHT22;31567;54.600;9.842;2023-05-23T18:48:38;12.10;95.70
45849;DHT22;31567;54.600;9.842;2023-05-23T18:52:18;12.10;95.70
45849;DHT22;31567;54.600;9.842;2023-05-23T18:55:58;12.10;95.60
45849;DHT22;31567;54.600;9.842;2023-05-23T18:59:38;12.10;95.70
45849;DHT22;31567;54.600;9.842;2023-05-23T19:03:17;12.00;95.70
45849;DHT22;31567;54.600;9.842;2023-05-23T19:06:57;12.10;96.10
45849;DHT22;31567;54.600;9.842;2023-05-23T19:10:36;12.10;95.80
45849;DHT22;31567;54.600;9.842;2023-05-23T19:14:16;12.00;95.70
45849;DHT22;31567;54.600;9.842;2023-05-23T19:17:55;12.00;95.70
45849;DHT22;31567;54.600;9.842;2023-05-23T19:21:35;12.00;95.70
45849;DHT22;31567;54.600;9.842;2023-05-23T19:25:14;12.00;95.70
45849;DHT22;31567;54.600;9.842;2023-05-23T19:28:54;12.00;95.70
45849;DHT22;31567;54.600;9.842;2023-05-23T19:32:33;12.00;95.70
45849;DHT22;31567;54.600;9.842;2023-05-23T19:36:13;12.00;95.80
45849;DHT22;31567;54.600;9.842;2023-05-23T19:39:52;12.00;95.90
45849;DHT22;31567;54.600;9.842;2023-05-23T19:43:32;12.00;95.90
45849;DHT22;31567;54.600;9.842;2023-05-23T19:47:11;11.90;95.90
45849;DHT22;31567;54.600;9.842;2023-05-23T19:50:51;12.00;95.90
45849;DHT22;31567;54.600;9.842;2023-05-23T19:54:30;11.90;96.20
45849;DHT22;31567;54.600;9.842;2023-05-23T19:58:10;11.90;96.00
45849;DHT22;31567;54.600;9.842;2023-05-23T20:01:50;11.90;96.00
45849;DHT22;31567;54.600;9.842;2023-05-23T20:05:29;11.90;96.00
45849;DHT22;31567;54.600;9.842;2023-05-23T20:09:09;11.80;96.00
45849;DHT22;31567;54.600;9.842;2023-05-23T20:12:49;11.80;96.00
45849;DHT22;31567;54.600;9.842;2023-05-23T20:16:28;11.80;96.00
45849;DHT22;31567;54.600;9.842;2023-05-23T20:20:08;11.80;96.00
45849;DHT22;31567;54.600;9.842;2023-05-23T20:23:48;11.80;96.00
45849;DHT22;31567;54.600;9.842;2023-05-23T20:27:28;11.80;96.10
45849;DHT22;31567;54.600;9.842;2023-05-23T20:31:07;11.80;96.10
45849;DHT22;31567;54.600;9.842;2023-05-23T20:34:47;11.80;96.20
45849;DHT22;31567;54.600;9.842;2023-05-23T20:38:26;11.80;96.30
45849;DHT22;31567;54.600;9.842;2023-05-23T20:42:07;11.80;96.40
45849;DHT22;31567;54.600;9.842;2023-05-23T20:45:48;11.80;96.50
45849;DHT22;31567;54.600;9.842;2023-05-23T20:49:28;11.80;96.80
45849;DHT22;31567;54.600;9.842;2023-05-23T20:53:08;11.70;96.90
45849;DHT22;31567;54.600;9.842;2023-05-23T20:56:47;11.80;97.00
45849;DHT22;31567;54.600;9.842;2023-05-23T21:00:27;11.60;97.10
45849;DHT22;31567;54.600;9.842;2023-05-23T21:04:06;11.70;97.20
45849;DHT22;31567;54.600;9.842;2023-05-23T21:07:46;11.60;97.30
45849;DHT22;31567;54.600;9.842;2023-05-23T21:11:26;11.60;97.50
45849;DHT22;31567;54.600;9.842;2023-05-23T21:15:05;11.60;97.70
45849;DHT22;31567;54.600;9.842;2023-05-23T21:18:45;11.60;97.80
45849;DHT22;31567;54.600;9.842;2023-05-23T21:22:25;11.60;98.00
45849;DHT22;31567;54.600;9.842;2023-05-23T21:26:04;11.50;98.10
45849;DHT22;31567;54.600;9.842;2023-05-23T21:29:44;11.50;98.20
45849;DHT22;31567;54.600;9.842;2023-05-23T21:33:25;11.60;98.40
45849;DHT22;31567;54.600;9.842;2023-05-23T21:37:04;11.60;98.40
45849;DHT22;31567;54.600;9.842;2023-05-23T21:40:44;11.60;98.50
45849;DHT22;31567;54.600;9.842;2023-05-23T21:44:23;11.50;98.60
45849;DHT22;31567;54.600;9.842;2023-05-23T21:48:03;11.50;98.60
45849;DHT22;31567;54.600;9.842;2023-05-23T21:51:43;11.50;98.50
45849;DHT22;31567;54.600;9.842;2023-05-23T21:55:22;11.60;98.50
45849;DHT22;31567;54.600;9.842;2023-05-23T21:59:02;11.50;98.40
45849;DHT22;31567;54.600;9.842;2023-05-23T22:02:42;11.60;98.40
45849;DHT22;31567;54.600;9.842;2023-05-23T22:06:22;11.70;98.40
45849;DHT22;31567;54.600;9.842;2023-05-23T22:10:02;11.60;98.30
45849;DHT22;31567;54.600;9.842;2023-05-23T22:13:42;11.70;98.20
45849;DHT22;31567;54.600;9.842;2023-05-23T22:17:21;11.70;98.20
45849;DHT22;31567;54.600;9.842;2023-05-23T22:21:04;11.60;98.20
45849;DHT22;31567;54.600;9.842;2023-05-23T22:24:44;11.60;98.30
45849;DHT22;31567;54.600;9.842;2023-05-23T22:28:23;11.60;98.30
45849;DHT22;31567;54.600;9.842;2023-05-23T22:32:03;11.70;98.30
45849;DHT22;31567;54.600;9.842;2023-05-23T22:35:43;11.60;98.30
45849;DHT22;31567;54.600;9.842;2023-05-23T22:39:22;11.60;98.30
45849;DHT22;31567;54.600;9.842;2023-05-23T22:43:05;11.60;98.20
45849;DHT22;31567;54.600;9.842;2023-05-23T22:46:45;11.50;98.40
45849;DHT22;31567;54.600;9.842;2023-05-23T22:50:25;11.50;98.40
45849;DHT22;31567;54.600;9.842;2023-05-23T22:54:05;11.50;98.40
45849;DHT22;31567;54.600;9.842;2023-05-23T22:57:44;11.50;98.40
45849;DHT22;31567;54.600;9.842;2023-05-23T23:01:24;11.50;98.40
45849;DHT22;31567;54.600;9.842;2023-05-23T23:05:04;11.60;98.50
45849;DHT22;31567;54.600;9.842;2023-05-23T23:08:44;11.60;98.50
45849;DHT22;31567;54.600;9.842;2023-05-23T23:12:25;11.60;98.60
45849;DHT22;31567;54.600;9.842;2023-05-23T23:16:05;11.60;98.60
45849;DHT22;31567;54.600;9.842;2023-05-23T23:19:45;11.60;98.50
45849;DHT22;31567;54.600;9.842;2023-05-23T23:23:25;11.50;98.60